Whiteville, NC

9:00 PM EST on November 24, 2014 (GMT -0500)
CCSkywatch | Change Station
CLOSE
Current Station
Personal Weather Station
Location: Whiteville, NC
Elevation: 91 ft
Nearby Weather Stations

Elev 91 ft 34.41 °N, 78.75 °W | Updated 1 second ago

Rain
Rain
64.5 °F
Feels Like 64.5 °F
N
2.0
Wind Variable Wind from SSW
Gusts 6.0 mph

Today
High -- | Low -- °F
--% Chance of Precip.
Yesterday
High -- | Low -- °F
Precip. -- in
6:56 AM 5:06 PM
Waxing Crescent, 8% visible
Pressure 29.93 in
Visibility 10.0 miles
Clouds Mostly Cloudy 8500 ft
Overcast 11000 ft
Dew Point 62 °F
Humidity 92%
Rainfall 0.89 in
Snow Depth Not available.
UV 0 out of 12
Pollen 1.10 out of 12
Air Quality Not available.
Flu Activity Not available.
METAR KCPC 250155Z AUTO 19004KT 10SM BKN085 OVC110 18/17 A2993 RMK AO2 P0001

More Conditions Fewer Conditions

Pressure 29.93 in
Visibility 10.0 miles
Clouds Mostly Cloudy 8500 ft
Overcast 11000 ft
Dew Point 62 °F
Humidity 92%
Rainfall 0.89 in
Snow Depth Not available.
UV 0 out of 12
Pollen 1.10 out of 12
Air Quality Not available.
Flu Activity Not available.
METAR KCPC 250155Z AUTO 19004KT 10SM BKN085 OVC110 18/17 A2993 RMK AO2 P0001

More Conditions Fewer Conditions

10-Day Weather Forecast

Almanac

Astronomy

Nov. 24, 2014 Rise Set
Actual Time
Civil Twilight
Nautical Twilight
Astronomical Twilight
Moon
Length of Visible Light
Length of Day
Tomorrow will be .
, % of the Moon is Illuminated

Today's Extremes

State Highs State Lows

Community

WunderPhotos

Upload Photos

1,773,460 photos uploaded!

WunderBlogs® & News

Nearby

Air Quality

  Air Quality AQ Index Pollutant
Not available.

Snow Depth

Station Depth Elevation

Earthquake Activity

City Distance Mag. Time & Date
Minimum magnitude displayed is 2.5.

Coastal Water Temperatures

Place Temperature

Nearby Weather Stations